Adelia Maria, Argentina
Current Conditions -  °F | °C
As of 1:00 PM on Wednesday 28 Jan 2015 (Local Time) from SAOC Reporting Station
Broken Clouds Broken Clouds  
Wind Chill: 81°   Ceiling: 2000
Heat Index: 82°   Visibility: 6mi
Dew Point: 63°   Wind: 12mph
Humidity: 54%   Direction: 140°SE
Pressure: 29.85"   Gusts: NA
Location:  33.62°S, 64.03°W
Report Text: SAOC 281600Z 14010KT 9999 BKN020 SCT20027/17 Q1011
Loading
Personal Weather Stations






























Interactive Weather Map New forecast layout! Learn more

10-Day Weather Forecast

Advertisements
Track Severe Weather on mobile